Ship Status Report: callsign WDJ3639

sailwx.info

Track history (hours):
 
Tides and Currents Weather Stations Pressure Air Temp Water Temp Dewpoint Dewpoint Depression Visibility Wind Speed Wind Dir Waves Ship Positions

Oceanographic research ship ()

Owner: Ocean Titan Holding, LLC, Seattle, WA. More information available from US FCC via Universal Licensing System and Coast Guard Vessel Documentation Center.

Last reported at 2017-Oct-17 06:00 UTC. Time now 2017-Oct-17 06:03 UTC.
Position N 36°47' W 123°58'.

Length 60 m; draft 4.6 m.

Type: Cargo ship. MMSI: 369228000.

Date/timePositionNaut miles runAvg speedWind from/ knotsBaromVisibWave heightAir tempDewpointWater temp
2017-Oct-17 06:00N 36°47' W 123°58'0 0.0
2017-Oct-17 05:30N 36°47' W 123°58'0 0.0
2017-Oct-17 04:58N 36°47' W 123°58'20 0.6
2017-Oct-15 19:45N 37°06' W 124°07'1 1.8
2017-Oct-15 19:25N 37°05' W 124°07'1 0.6
2017-Oct-15 18:35N 37°06' W 124°07'0 2.8
2017-Oct-15 18:26N 37°06' W 124°08'1 1.9
2017-Oct-15 17:40N 37°05' W 124°07'1 4.0
2017-Oct-15 17:29N 37°05' W 124°08'19 1.9
2017-Oct-15 07:33N 36°47' W 123°60'10 4.4
2017-Oct-15 05:13N 36°58' W 123°59'0 0.1
2017-Oct-15 04:04N 36°58' W 123°59'0 3.0
2017-Oct-15 03:57N 36°58' W 123°59'0 0.8
2017-Oct-15 03:30N 36°58' W 123°59'0 0.6
2017-Oct-15 03:00N 36°59' W 123°59'1 2.1
2017-Oct-15 02:30N 36°60' W 123°59'3 5.7
2017-Oct-15 02:00N 37°02' W 124°00'3 5.6
2017-Oct-15 01:30N 37°05' W 124°01'3 5.1
2017-Oct-15 00:59N 37°07' W 124°02'3 4.5
2017-Oct-15 00:24N 37°10' W 124°03'2 5.1
2017-Oct-14 23:59N 37°12' W 124°04'2 4.2
2017-Oct-14 23:30N 37°14' W 124°05'2 4.4
2017-Oct-14 23:00N 37°16' W 124°06'2 3.5
2017-Oct-14 22:30N 37°18' W 124°07'2 3.5
2017-Oct-14 22:00N 37°19' W 124°07'2 3.7
2017-Oct-14 21:22N 37°21' W 124°08'1 3.2
2017-Oct-14 21:00N 37°23' W 124°09'1 2.6
2017-Oct-14 20:30N 37°24' W 124°09'1 2.6
2017-Oct-14 20:00N 37°25' W 124°10'2 3.7
2017-Oct-14 19:29N 37°27' W 124°10'2 3.6
2017-Oct-14 18:59N 37°29' W 124°11'2 3.2
2017-Oct-14 18:30N 37°30' W 124°12'2 3.6
2017-Oct-14 18:00N 37°32' W 124°12'2 4.3
2017-Oct-14 17:30N 37°34' W 124°13'1 2.3
2017-Oct-14 16:58N 37°34' W 124°11'2 5.0
2017-Oct-14 16:30N 37°33' W 124°09'2 4.5
2017-Oct-14 16:00N 37°32' W 124°06'2 4.6
2017-Oct-14 15:30N 37°30' W 124°04'2 4.3
2017-Oct-14 15:00N 37°29' W 124°02'2 4.4
2017-Oct-14 14:30N 37°28' W 123°59'2 4.1
2017-Oct-14 14:00N 37°27' W 123°58'2 3.6
2017-Oct-14 13:30N 37°25' W 123°56'2 3.5
2017-Oct-14 12:58N 37°24' W 123°54'2 2.2
2017-Oct-14 12:00N 37°26' W 123°54'3 4.9
2017-Oct-14 11:27N 37°29' W 123°56'27 1.8
2017-Oct-13 20:19N 37°24' W 123°22'410.3
2017-Oct-13 19:56N 37°26' W 123°18'510.2
2017-Oct-13 19:25N 37°29' W 123°12'410.1
2017-Oct-13 19:00N 37°32' W 123°08'510.2
2017-Oct-13 18:30N 37°35' W 123°03'510.2
2017-Oct-13 18:00N 37°37' W 122°57'510.4
2017-Oct-13 17:30N 37°40' W 122°52'510.2
2017-Oct-13 17:00N 37°43' W 122°46'510.2
2017-Oct-13 16:30N 37°45' W 122°41'4 8.8
2017-Oct-13 16:00N 37°47' W 122°35'510.6
2017-Oct-13 15:30N 37°49' W 122°29'4 8.4
2017-Oct-13 15:00N 37°49' W 122°24'1 1.6
2017-Oct-13 14:26N 37°48' W 122°24'0 0.0
2017-Oct-13 13:56N 37°48' W 122°24'0 0.0
2017-Oct-13 13:23N 37°48' W 122°24'0 0.0
2017-Oct-13 12:59N 37°48' W 122°24'0 0.0
2017-Oct-13 12:29N 37°48' W 122°24'0 0.0
2017-Oct-13 11:59N 37°48' W 122°24'0 0.0
2017-Oct-13 11:29N 37°48' W 122°24'0 0.0
2017-Oct-13 10:56N 37°48' W 122°24'0 0.1
2017-Oct-13 10:29N 37°48' W 122°24'0 0.0
2017-Oct-13 09:59N 37°48' W 122°24'0 0.0
2017-Oct-13 09:26N 37°48' W 122°24'0 0.1
2017-Oct-13 08:56N 37°48' W 122°24'0 0.0
2017-Oct-13 08:29N 37°48' W 122°24'0 0.1
2017-Oct-13 07:59N 37°48' W 122°24'0 0.1
2017-Oct-13 07:29N 37°48' W 122°24'0 0.0
2017-Oct-13 06:59N 37°48' W 122°24'0 0.1
2017-Oct-13 06:29N 37°48' W 122°24'0 0.1
2017-Oct-13 05:59N 37°48' W 122°24'0 0.1
2017-Oct-13 05:29N 37°48' W 122°24'0 0.1
2017-Oct-13 04:59N 37°48' W 122°24'0 0.0
2017-Oct-13 04:23N 37°48' W 122°24'0 0.0
2017-Oct-13 03:56N 37°48' W 122°24'0 0.0
2017-Oct-13 03:29N 37°48' W 122°24'0 0.0
2017-Oct-13 02:59N 37°48' W 122°24'0 0.0
2017-Oct-13 02:29N 37°48' W 122°24'0 0.0
2017-Oct-13 01:56N 37°48' W 122°24'0 0.0
2017-Oct-13 01:29N 37°48' W 122°24'0 0.0
2017-Oct-13 00:56N 37°48' W 122°24'0 0.0
2017-Oct-13 00:23N 37°48' W 122°24'0 0.0
2017-Oct-12 23:59N 37°48' W 122°24'0 0.0
2017-Oct-12 23:29N 37°48' W 122°24'0 0.0
2017-Oct-12 22:59N 37°48' W 122°24'0 0.0
2017-Oct-12 22:29N 37°48' W 122°24'0 0.0
2017-Oct-12 21:56N 37°48' W 122°24'0 0.0
2017-Oct-12 21:29N 37°48' W 122°24'0 0.0
2017-Oct-12 20:59N 37°48' W 122°24'0 0.0
2017-Oct-12 20:29N 37°48' W 122°24'0 0.0
2017-Oct-12 19:59N 37°48' W 122°24'0 0.0
2017-Oct-12 19:29N 37°48' W 122°24'0 0.0
2017-Oct-12 18:59N 37°48' W 122°24'0 0.0
2017-Oct-12 18:29N 37°48' W 122°24'0 0.0
2017-Oct-12 17:59N 37°48' W 122°24'0 0.0
2017-Oct-12 17:29N 37°48' W 122°24'0 0.0
2017-Oct-12 16:59N 37°48' W 122°24'0 0.0
2017-Oct-12 16:29N 37°48' W 122°24'0 0.0
2017-Oct-12 15:59N 37°48' W 122°24'0 0.0
2017-Oct-12 15:29N 37°48' W 122°24'0 0.1
2017-Oct-12 14:59N 37°48' W 122°24'0 0.1
2017-Oct-12 14:29N 37°48' W 122°24'0 0.0
2017-Oct-12 13:59N 37°48' W 122°24'0 0.0
2017-Oct-12 13:29N 37°48' W 122°24'0 0.0
2017-Oct-12 12:59N 37°48' W 122°24'0 0.0
2017-Oct-12 12:29N 37°48' W 122°24'0 0.0
2017-Oct-12 11:59N 37°48' W 122°24'0 0.0
2017-Oct-12 11:29N 37°48' W 122°24'0 0.0
2017-Oct-12 10:59N 37°48' W 122°24'0 0.0
2017-Oct-12 10:29N 37°48' W 122°24'0 0.1
2017-Oct-12 09:59N 37°48' W 122°24'0 0.0
2017-Oct-12 09:29N 37°48' W 122°24'0 0.1
2017-Oct-12 08:59N 37°48' W 122°24'0 0.0
2017-Oct-12 08:29N 37°48' W 122°24'0 0.0
2017-Oct-12 07:59N 37°48' W 122°24'0 0.1
2017-Oct-12 07:29N 37°48' W 122°24'0 0.1
2017-Oct-12 06:59N 37°48' W 122°24'0 0.0
2017-Oct-12 06:29N 37°48' W 122°24'0 0.0
2017-Oct-12 05:59N 37°48' W 122°24'0 0.1
2017-Oct-12 05:29N 37°48' W 122°24'0 0.1
2017-Oct-12 04:59N 37°48' W 122°24'0 0.0
2017-Oct-12 04:29N 37°48' W 122°24'0 0.0
2017-Oct-12 03:59N 37°48' W 122°24'0 0.0
2017-Oct-12 03:29N 37°48' W 122°24'0 0.0
2017-Oct-12 02:59N 37°48' W 122°24'0 0.1
2017-Oct-12 02:29N 37°48' W 122°24'0 0.1
2017-Oct-12 01:59N 37°48' W 122°24'0 0.0
2017-Oct-12 01:29N 37°48' W 122°24'0 0.0
2017-Oct-12 00:59N 37°48' W 122°24'0 0.0
2017-Oct-12 00:29N 37°48' W 122°24'0 0.0
2017-Oct-11 23:59N 37°48' W 122°24'0 0.0
2017-Oct-11 23:29N 37°48' W 122°24'0 0.0
2017-Oct-11 22:59N 37°48' W 122°24'0 0.0
2017-Oct-11 22:29N 37°48' W 122°24'0 0.0
2017-Oct-11 21:59N 37°48' W 122°24'0 0.0
2017-Oct-11 21:29N 37°48' W 122°24'0 0.0
2017-Oct-11 20:59N 37°48' W 122°24'0 0.0
2017-Oct-11 20:29N 37°48' W 122°24'0 0.0
2017-Oct-11 19:59N 37°48' W 122°24'0 0.0
2017-Oct-11 19:29N 37°48' W 122°24'0 0.0
2017-Oct-11 18:59N 37°48' W 122°24'0 0.0
2017-Oct-11 18:29N 37°48' W 122°24'0 0.0
2017-Oct-11 17:59N 37°48' W 122°24'0 0.0
2017-Oct-11 17:29N 37°48' W 122°24'0 0.0
2017-Oct-11 16:59N 37°48' W 122°24'0 0.0
2017-Oct-11 00:00N 37°48' W 122°24'0 0.0
2017-Oct-10 23:31N 37°48' W 122°24'0 0.0
2017-Oct-10 23:00N 37°48' W 122°24'0 0.0
2017-Oct-10 22:30N 37°48' W 122°24'0 0.0
2017-Oct-10 22:00N 37°48' W 122°24'1 2.2
2017-Oct-10 21:31N 37°49' W 122°25'611.5
2017-Oct-10 21:00N 37°48' W 122°32'5 9.4
2017-Oct-10 20:30N 37°46' W 122°38'4 8.3
2017-Oct-10 20:00N 37°43' W 122°42'4 8.1
2017-Oct-10 19:30N 37°41' W 122°46'4 8.0
2017-Oct-10 19:00N 37°39' W 122°50'4 8.4
2017-Oct-10 18:30N 37°36' W 122°55'4 8.1
2017-Oct-10 18:00N 37°34' W 122°59'4 8.3
2017-Oct-10 17:30N 37°32' W 123°03'4 8.2
2017-Oct-10 17:00N 37°30' W 123°08'4 8.3
2017-Oct-10 16:30N 37°27' W 123°12'27 8.6
2017-Oct-10 13:22N 37°15' W 123°42'3310.2
2017-Oct-10 10:07N 37°01' W 124°20'110.6
2017-Oct-10 10:00N 37°00' W 124°21'510.2
2017-Oct-10 09:30N 36°59' W 124°27'510.3
2017-Oct-10 09:00N 36°58' W 124°34'510.4
2017-Oct-10 08:30N 36°57' W 124°40'510.2
2017-Oct-10 08:00N 36°56' W 124°46'  
Track history (hours):
 
Tides and Currents Weather Stations Pressure Air Temp Water Temp Dewpoint Dewpoint Depression Visibility Wind Speed Wind Dir Waves Ship Positions

Oceanographic research ship ()

Owner: Ocean Titan Holding, LLC, Seattle, WA. More information available from US FCC via Universal Licensing System and Coast Guard Vessel Documentation Center.

Last reported at 2017-Oct-17 06:00 UTC. Time now 2017-Oct-17 06:03 UTC.
Position N 36°47' W 123°58'.

Length 60 m; draft 4.6 m.

Type: Cargo ship. MMSI: 369228000.

Date/timePositionNaut miles runAvg speedWind from/ knotsBaromVisibWave heightAir tempDewpointWater temp
2017-Oct-17 06:00N 36°47' W 123°58'0 0.0
2017-Oct-17 05:30N 36°47' W 123°58'0 0.0
2017-Oct-17 04:58N 36°47' W 123°58'20 0.6
2017-Oct-15 19:45N 37°06' W 124°07'1 1.8
2017-Oct-15 19:25N 37°05' W 124°07'1 0.6
2017-Oct-15 18:35N 37°06' W 124°07'0 2.8
2017-Oct-15 18:26N 37°06' W 124°08'1 1.9
2017-Oct-15 17:40N 37°05' W 124°07'1 4.0
2017-Oct-15 17:29N 37°05' W 124°08'19 1.9
2017-Oct-15 07:33N 36°47' W 123°60'10 4.4
2017-Oct-15 05:13N 36°58' W 123°59'0 0.1
2017-Oct-15 04:04N 36°58' W 123°59'0 3.0
2017-Oct-15 03:57N 36°58' W 123°59'0 0.8
2017-Oct-15 03:30N 36°58' W 123°59'0 0.6
2017-Oct-15 03:00N 36°59' W 123°59'1 2.1
2017-Oct-15 02:30N 36°60' W 123°59'3 5.7
2017-Oct-15 02:00N 37°02' W 124°00'3 5.6
2017-Oct-15 01:30N 37°05' W 124°01'3 5.1
2017-Oct-15 00:59N 37°07' W 124°02'3 4.5
2017-Oct-15 00:24N 37°10' W 124°03'2 5.1
2017-Oct-14 23:59N 37°12' W 124°04'2 4.2
2017-Oct-14 23:30N 37°14' W 124°05'2 4.4
2017-Oct-14 23:00N 37°16' W 124°06'2 3.5
2017-Oct-14 22:30N 37°18' W 124°07'2 3.5
2017-Oct-14 22:00N 37°19' W 124°07'2 3.7
2017-Oct-14 21:22N 37°21' W 124°08'1 3.2
2017-Oct-14 21:00N 37°23' W 124°09'1 2.6
2017-Oct-14 20:30N 37°24' W 124°09'1 2.6
2017-Oct-14 20:00N 37°25' W 124°10'2 3.7
2017-Oct-14 19:29N 37°27' W 124°10'2 3.6
2017-Oct-14 18:59N 37°29' W 124°11'2 3.2
2017-Oct-14 18:30N 37°30' W 124°12'2 3.6
2017-Oct-14 18:00N 37°32' W 124°12'2 4.3
2017-Oct-14 17:30N 37°34' W 124°13'1 2.3
2017-Oct-14 16:58N 37°34' W 124°11'2 5.0
2017-Oct-14 16:30N 37°33' W 124°09'2 4.5
2017-Oct-14 16:00N 37°32' W 124°06'2 4.6
2017-Oct-14 15:30N 37°30' W 124°04'2 4.3
2017-Oct-14 15:00N 37°29' W 124°02'2 4.4
2017-Oct-14 14:30N 37°28' W 123°59'2 4.1
2017-Oct-14 14:00N 37°27' W 123°58'2 3.6
2017-Oct-14 13:30N 37°25' W 123°56'2 3.5
2017-Oct-14 12:58N 37°24' W 123°54'2 2.2
2017-Oct-14 12:00N 37°26' W 123°54'3 4.9
2017-Oct-14 11:27N 37°29' W 123°56'27 1.8
2017-Oct-13 20:19N 37°24' W 123°22'410.3
2017-Oct-13 19:56N 37°26' W 123°18'510.2
2017-Oct-13 19:25N 37°29' W 123°12'410.1
2017-Oct-13 19:00N 37°32' W 123°08'510.2
2017-Oct-13 18:30N 37°35' W 123°03'510.2
2017-Oct-13 18:00N 37°37' W 122°57'510.4
2017-Oct-13 17:30N 37°40' W 122°52'510.2
2017-Oct-13 17:00N 37°43' W 122°46'510.2
2017-Oct-13 16:30N 37°45' W 122°41'4 8.8
2017-Oct-13 16:00N 37°47' W 122°35'510.6
2017-Oct-13 15:30N 37°49' W 122°29'4 8.4
2017-Oct-13 15:00N 37°49' W 122°24'1 1.6
2017-Oct-13 14:26N 37°48' W 122°24'0 0.0
2017-Oct-13 13:56N 37°48' W 122°24'0 0.0
2017-Oct-13 13:23N 37°48' W 122°24'0 0.0
2017-Oct-13 12:59N 37°48' W 122°24'0 0.0
2017-Oct-13 12:29N 37°48' W 122°24'0 0.0
2017-Oct-13 11:59N 37°48' W 122°24'0 0.0
2017-Oct-13 11:29N 37°48' W 122°24'0 0.0
2017-Oct-13 10:56N 37°48' W 122°24'0 0.1
2017-Oct-13 10:29N 37°48' W 122°24'0 0.0
2017-Oct-13 09:59N 37°48' W 122°24'0 0.0
2017-Oct-13 09:26N 37°48' W 122°24'0 0.1
2017-Oct-13 08:56N 37°48' W 122°24'0 0.0
2017-Oct-13 08:29N 37°48' W 122°24'0 0.1
2017-Oct-13 07:59N 37°48' W 122°24'0 0.1
2017-Oct-13 07:29N 37°48' W 122°24'0 0.0
2017-Oct-13 06:59N 37°48' W 122°24'0 0.1
2017-Oct-13 06:29N 37°48' W 122°24'0 0.1
2017-Oct-13 05:59N 37°48' W 122°24'0 0.1
2017-Oct-13 05:29N 37°48' W 122°24'0 0.1
2017-Oct-13 04:59N 37°48' W 122°24'0 0.0
2017-Oct-13 04:23N 37°48' W 122°24'0 0.0
2017-Oct-13 03:56N 37°48' W 122°24'0 0.0
2017-Oct-13 03:29N 37°48' W 122°24'0 0.0
2017-Oct-13 02:59N 37°48' W 122°24'0 0.0
2017-Oct-13 02:29N 37°48' W 122°24'0 0.0
2017-Oct-13 01:56N 37°48' W 122°24'0 0.0
2017-Oct-13 01:29N 37°48' W 122°24'0 0.0
2017-Oct-13 00:56N 37°48' W 122°24'0 0.0
2017-Oct-13 00:23N 37°48' W 122°24'0 0.0
2017-Oct-12 23:59N 37°48' W 122°24'0 0.0
2017-Oct-12 23:29N 37°48' W 122°24'0 0.0
2017-Oct-12 22:59N 37°48' W 122°24'0 0.0
2017-Oct-12 22:29N 37°48' W 122°24'0 0.0
2017-Oct-12 21:56N 37°48' W 122°24'0 0.0
2017-Oct-12 21:29N 37°48' W 122°24'0 0.0
2017-Oct-12 20:59N 37°48' W 122°24'0 0.0
2017-Oct-12 20:29N 37°48' W 122°24'0 0.0
2017-Oct-12 19:59N 37°48' W 122°24'0 0.0
2017-Oct-12 19:29N 37°48' W 122°24'0 0.0
2017-Oct-12 18:59N 37°48' W 122°24'0 0.0
2017-Oct-12 18:29N 37°48' W 122°24'0 0.0
2017-Oct-12 17:59N 37°48' W 122°24'0 0.0
2017-Oct-12 17:29N 37°48' W 122°24'0 0.0
2017-Oct-12 16:59N 37°48' W 122°24'0 0.0
2017-Oct-12 16:29N 37°48' W 122°24'0 0.0
2017-Oct-12 15:59N 37°48' W 122°24'0 0.0
2017-Oct-12 15:29N 37°48' W 122°24'0 0.1
2017-Oct-12 14:59N 37°48' W 122°24'0 0.1
2017-Oct-12 14:29N 37°48' W 122°24'0 0.0
2017-Oct-12 13:59N 37°48' W 122°24'0 0.0
2017-Oct-12 13:29N 37°48' W 122°24'0 0.0
2017-Oct-12 12:59N 37°48' W 122°24'0 0.0
2017-Oct-12 12:29N 37°48' W 122°24'0 0.0
2017-Oct-12 11:59N 37°48' W 122°24'0 0.0
2017-Oct-12 11:29N 37°48' W 122°24'0 0.0
2017-Oct-12 10:59N 37°48' W 122°24'0 0.0
2017-Oct-12 10:29N 37°48' W 122°24'0 0.1
2017-Oct-12 09:59N 37°48' W 122°24'0 0.0
2017-Oct-12 09:29N 37°48' W 122°24'0 0.1
2017-Oct-12 08:59N 37°48' W 122°24'0 0.0
2017-Oct-12 08:29N 37°48' W 122°24'0 0.0
2017-Oct-12 07:59N 37°48' W 122°24'0 0.1
2017-Oct-12 07:29N 37°48' W 122°24'0 0.1
2017-Oct-12 06:59N 37°48' W 122°24'0 0.0
2017-Oct-12 06:29N 37°48' W 122°24'0 0.0
2017-Oct-12 05:59N 37°48' W 122°24'0 0.1
2017-Oct-12 05:29N 37°48' W 122°24'0 0.1
2017-Oct-12 04:59N 37°48' W 122°24'0 0.0
2017-Oct-12 04:29N 37°48' W 122°24'0 0.0
2017-Oct-12 03:59N 37°48' W 122°24'0 0.0
2017-Oct-12 03:29N 37°48' W 122°24'0 0.0
2017-Oct-12 02:59N 37°48' W 122°24'0 0.1
2017-Oct-12 02:29N 37°48' W 122°24'0 0.1
2017-Oct-12 01:59N 37°48' W 122°24'0 0.0
2017-Oct-12 01:29N 37°48' W 122°24'0 0.0
2017-Oct-12 00:59N 37°48' W 122°24'0 0.0
2017-Oct-12 00:29N 37°48' W 122°24'0 0.0
2017-Oct-11 23:59N 37°48' W 122°24'0 0.0
2017-Oct-11 23:29N 37°48' W 122°24'0 0.0
2017-Oct-11 22:59N 37°48' W 122°24'0 0.0
2017-Oct-11 22:29N 37°48' W 122°24'0 0.0
2017-Oct-11 21:59N 37°48' W 122°24'0 0.0
2017-Oct-11 21:29N 37°48' W 122°24'0 0.0
2017-Oct-11 20:59N 37°48' W 122°24'0 0.0
2017-Oct-11 20:29N 37°48' W 122°24'0 0.0
2017-Oct-11 19:59N 37°48' W 122°24'0 0.0
2017-Oct-11 19:29N 37°48' W 122°24'0 0.0
2017-Oct-11 18:59N 37°48' W 122°24'0 0.0
2017-Oct-11 18:29N 37°48' W 122°24'0 0.0
2017-Oct-11 17:59N 37°48' W 122°24'0 0.0
2017-Oct-11 17:29N 37°48' W 122°24'0 0.0
2017-Oct-11 16:59N 37°48' W 122°24'0 0.0
2017-Oct-11 00:00N 37°48' W 122°24'0 0.0
2017-Oct-10 23:31N 37°48' W 122°24'0 0.0
2017-Oct-10 23:00N 37°48' W 122°24'0 0.0
2017-Oct-10 22:30N 37°48' W 122°24'0 0.0
2017-Oct-10 22:00N 37°48' W 122°24'1 2.2
2017-Oct-10 21:31N 37°49' W 122°25'611.5
2017-Oct-10 21:00N 37°48' W 122°32'5 9.4
2017-Oct-10 20:30N 37°46' W 122°38'4 8.3
2017-Oct-10 20:00N 37°43' W 122°42'4 8.1
2017-Oct-10 19:30N 37°41' W 122°46'4 8.0
2017-Oct-10 19:00N 37°39' W 122°50'4 8.4
2017-Oct-10 18:30N 37°36' W 122°55'4 8.1
2017-Oct-10 18:00N 37°34' W 122°59'4 8.3
2017-Oct-10 17:30N 37°32' W 123°03'4 8.2
2017-Oct-10 17:00N 37°30' W 123°08'4 8.3
2017-Oct-10 16:30N 37°27' W 123°12'27 8.6
2017-Oct-10 13:22N 37°15' W 123°42'3310.2
2017-Oct-10 10:07N 37°01' W 124°20'110.6
2017-Oct-10 10:00N 37°00' W 124°21'510.2
2017-Oct-10 09:30N 36°59' W 124°27'510.3
2017-Oct-10 09:00N 36°58' W 124°34'510.4
2017-Oct-10 08:30N 36°57' W 124°40'510.2
2017-Oct-10 08:00N 36°56' W 124°46'  

Dump ship's entire track history